Time,TemperatureF,DewpointF,PressureIn,WindDirection,WindDirectionDegrees,WindSpeedMPH,WindSpeedGustMPH,Humidity,HourlyPrecipIn,Conditions,Clouds,dailyrainin,SoftwareType,DateUTC
2013-02-01 00:01:00,26.0,21.0,30.27,ENE,67,2.0,4.0,82,-99.99,,,0.00,,2013-02-01 07:01:00,
2013-02-01 00:12:00,27.0,22.0,30.27,ENE,67,2.0,4.0,83,-99.99,,,0.00,,2013-02-01 07:12:00,
2013-02-01 00:21:00,27.0,22.0,30.27,ENE,67,2.0,4.0,83,-99.99,,,0.00,,2013-02-01 07:21:00,
2013-02-01 00:30:00,25.0,20.0,30.27,ENE,67,1.0,3.0,81,-99.99,,,0.00,,2013-02-01 07:30:00,
2013-02-01 00:32:00,27.0,21.0,30.26,ENE,67,3.0,5.0,81,-99.99,,,0.00,,2013-02-01 07:32:00,
2013-02-01 00:41:00,26.0,21.0,30.27,ENE,67,0.0,5.0,81,-99.99,,,0.00,,2013-02-01 07:41:00,
2013-02-01 00:52:00,25.0,20.0,30.27,ENE,67,2.0,3.0,81,-99.99,,,0.00,,2013-02-01 07:52:00,
2013-02-01 01:01:00,25.0,20.0,30.27,ENE,67,2.0,3.0,81,-99.99,,,0.00,,2013-02-01 08:01:00,
2013-02-01 01:11:00,25.0,20.0,30.27,ENE,67,1.0,3.0,81,-99.99,,,0.00,,2013-02-01 08:11:00,
2013-02-01 01:21:00,25.0,20.0,30.27,ENE,67,1.0,3.0,81,-99.99,,,0.00,,2013-02-01 08:21:00,
2013-02-01 01:42:00,25.0,20.0,30.27,ENE,67,3.0,5.0,82,-99.99,,,0.00,,2013-02-01 08:42:00,
2013-02-01 01:52:00,25.0,20.0,30.27,ENE,67,3.0,5.0,82,-99.99,,,0.00,,2013-02-01 08:52:00,
2013-02-01 02:01:00,25.0,19.0,30.27,ENE,67,0.0,4.0,80,-99.99,,,0.00,,2013-02-01 09:01:00,
2013-02-01 02:11:00,24.0,19.0,30.27,ENE,67,0.0,4.0,81,-99.99,,,0.00,,2013-02-01 09:11:00,
2013-02-01 02:21:00,24.0,19.0,30.27,ENE,67,0.0,4.0,81,-99.99,,,0.00,,2013-02-01 09:21:00,
2013-02-01 02:32:00,23.0,18.0,30.28,ENE,67,2.0,3.0,81,-99.99,,,0.00,,2013-02-01 09:32:00,
2013-02-01 02:41:00,24.0,19.0,30.27,ENE,67,0.0,4.0,81,-99.99,,,0.00,,2013-02-01 09:41:00,
2013-02-01 02:52:00,24.0,19.0,30.27,ENE,67,1.0,3.0,81,-99.99,,,0.00,,2013-02-01 09:52:00,
2013-02-01 03:01:00,24.0,19.0,30.27,ENE,67,1.0,3.0,81,-99.99,,,0.00,,2013-02-01 10:01:00,
2013-02-01 03:11:00,23.0,18.0,30.27,ENE,67,2.0,3.0,81,-99.99,,,0.00,,2013-02-01 10:11:00,
2013-02-01 03:21:00,23.0,18.0,30.27,ENE,67,2.0,3.0,81,-99.99,,,0.00,,2013-02-01 10:21:00,
2013-02-01 03:31:00,23.0,18.0,30.27,ENE,67,0.0,3.0,80,-99.99,,,0.00,,2013-02-01 10:31:00,
2013-02-01 03:42:00,22.0,17.0,30.28,ENE,67,0.0,3.0,81,-99.99,,,0.00,,2013-02-01 10:42:00,
2013-02-01 03:53:00,22.0,17.0,30.26,ENE,67,0.0,2.0,82,-99.99,,,0.00,,2013-02-01 10:53:00,
2013-02-01 04:01:00,22.0,17.0,30.26,ENE,67,0.0,2.0,82,-99.99,,,0.00,,2013-02-01 11:01:00,
2013-02-01 04:11:00,22.0,17.0,30.26,ENE,67,0.0,2.0,81,-99.99,,,0.00,,2013-02-01 11:11:00,
2013-02-01 04:21:00,22.0,17.0,30.26,ENE,67,0.0,2.0,81,-99.99,,,0.00,,2013-02-01 11:21:00,
2013-02-01 04:32:00,22.0,17.0,30.26,ENE,67,1.0,4.0,82,-99.99,,,0.00,,2013-02-01 11:32:00,
2013-02-01 04:41:00,22.0,17.0,30.26,ENE,67,1.0,4.0,82,-99.99,,,0.00,,2013-02-01 11:41:00,
2013-02-01 04:53:00,22.0,17.0,30.26,ENE,67,1.0,4.0,82,-99.99,,,0.00,,2013-02-01 11:53:00,
2013-02-01 05:02:00,21.0,17.0,30.29,ENE,67,0.0,4.0,82,-99.99,,,0.00,,2013-02-01 12:02:00,
2013-02-01 05:12:00,22.0,18.0,30.28,ENE,67,0.0,4.0,84,-99.99,,,0.00,,2013-02-01 12:12:00,
2013-02-01 05:22:00,22.0,18.0,30.28,ENE,67,0.0,4.0,84,-99.99,,,0.00,,2013-02-01 12:22:00,
2013-02-01 05:32:00,21.0,16.0,30.28,ENE,67,3.0,3.0,83,-99.99,,,0.00,,2013-02-01 12:32:00,
2013-02-01 05:42:00,21.0,16.0,30.28,ENE,67,3.0,3.0,83,-99.99,,,0.00,,2013-02-01 12:42:00,
2013-02-01 05:52:00,21.0,16.0,30.28,ENE,67,3.0,3.0,83,-99.99,,,0.00,,2013-02-01 12:52:00,
2013-02-01 06:02:00,21.0,17.0,30.32,ENE,67,3.0,4.0,84,-99.99,,,0.00,,2013-02-01 13:02:00,
2013-02-01 06:11:00,21.0,17.0,30.33,ENE,67,1.0,4.0,84,-99.99,,,0.00,,2013-02-01 13:11:00,
2013-02-01 06:21:00,21.0,17.0,30.33,ENE,67,1.0,4.0,84,-99.99,,,0.00,,2013-02-01 13:21:00,
2013-02-01 06:32:00,20.0,16.0,30.34,ENE,67,0.0,1.0,84,-99.99,,,0.00,,2013-02-01 13:32:00,
2013-02-01 06:42:00,20.0,16.0,30.34,ENE,67,3.0,4.0,84,-99.99,,,0.00,,2013-02-01 13:42:00,
2013-02-01 06:53:00,20.0,16.0,30.34,ENE,67,3.0,4.0,84,-99.99,,,0.00,,2013-02-01 13:53:00,
2013-02-01 07:03:00,20.0,16.0,30.39,ENE,67,3.0,4.0,84,-99.99,,,0.00,,2013-02-01 14:03:00,
2013-02-01 07:11:00,20.0,16.0,30.39,ENE,67,0.0,4.0,84,-99.99,,,0.00,,2013-02-01 14:11:00,
2013-02-01 07:21:00,20.0,16.0,30.39,ENE,67,0.0,4.0,84,-99.99,,,0.00,,2013-02-01 14:21:00,
2013-02-01 07:32:00,20.0,15.0,30.39,ENE,67,0.0,2.0,83,-99.99,,,0.00,,2013-02-01 14:32:00,
2013-02-01 07:42:00,20.0,15.0,30.41,ENE,67,0.0,4.0,83,-99.99,,,0.00,,2013-02-01 14:42:00,
2013-02-01 07:52:00,20.0,15.0,30.41,ENE,67,0.0,4.0,83,-99.99,,,0.00,,2013-02-01 14:52:00,
2013-02-01 08:02:00,20.0,15.0,30.41,ENE,67,0.0,3.0,83,-99.99,,,0.00,,2013-02-01 15:02:00,
2013-02-01 08:12:00,20.0,16.0,30.42,ENE,67,2.0,3.0,82,-99.99,,,0.00,,2013-02-01 15:12:00,
2013-02-01 08:21:00,20.0,16.0,30.42,ENE,67,2.0,3.0,82,-99.99,,,0.00,,2013-02-01 15:21:00,
2013-02-01 08:32:00,22.0,16.0,30.40,ENE,67,4.0,4.0,79,-99.99,,,0.00,,2013-02-01 15:32:00,
2013-02-01 08:42:00,23.0,18.0,30.39,ENE,67,0.0,4.0,80,-99.99,,,0.00,,2013-02-01 15:42:00,
2013-02-01 08:52:00,23.0,18.0,30.39,ENE,67,0.0,4.0,80,-99.99,,,0.00,,2013-02-01 15:52:00,
2013-02-01 09:02:00,25.0,19.0,30.41,ENE,67,1.0,2.0,78,-99.99,,,0.00,,2013-02-01 16:02:00,
2013-02-01 09:11:00,27.0,21.0,30.41,ENE,67,0.0,5.0,77,-99.99,,,0.00,,2013-02-01 16:11:00,
2013-02-01 09:22:00,27.0,21.0,30.41,ENE,67,0.0,5.0,77,-99.99,,,0.00,,2013-02-01 16:22:00,
2013-02-01 09:32:00,29.0,22.0,30.40,ENE,67,0.0,4.0,75,-99.99,,,0.00,,2013-02-01 16:32:00,
2013-02-01 09:42:00,32.0,25.0,30.38,East,82,0.0,4.0,73,-99.99,,,0.00,,2013-02-01 16:42:00,
2013-02-01 09:52:00,34.0,25.0,30.36,East,82,3.0,4.0,69,-99.99,,,0.00,,2013-02-01 16:52:00,
2013-02-01 10:02:00,34.0,25.0,30.36,East,82,3.0,4.0,69,-99.99,,,0.00,,2013-02-01 17:02:00,
2013-02-01 10:11:00,36.0,26.0,30.34,East,82,0.0,4.0,67,-99.99,,,0.00,,2013-02-01 17:11:00,
2013-02-01 10:22:00,36.0,26.0,30.34,East,82,0.0,4.0,67,-99.99,,,0.00,,2013-02-01 17:22:00,
2013-02-01 10:32:00,40.0,26.0,30.32,East,82,2.0,2.0,58,-99.99,,,0.00,,2013-02-01 17:32:00,
2013-02-01 10:42:00,41.0,25.0,30.31,East,82,0.0,5.0,53,-99.99,,,0.00,,2013-02-01 17:42:00,
2013-02-01 10:53:00,41.0,25.0,30.31,East,82,0.0,5.0,53,-99.99,,,0.00,,2013-02-01 17:53:00,
2013-02-01 11:02:00,44.0,24.0,30.28,East,82,1.0,2.0,45,-99.99,,,0.00,,2013-02-01 18:02:00,
2013-02-01 11:12:00,46.0,23.0,30.26,East,82,0.0,3.0,41,-99.99,,,0.00,,2013-02-01 18:12:00,
2013-02-01 11:22:00,46.0,23.0,30.26,East,82,0.0,3.0,41,-99.99,,,0.00,,2013-02-01 18:22:00,
2013-02-01 11:32:00,49.0,20.0,30.25,East,82,0.0,4.0,32,-99.99,,,0.00,,2013-02-01 18:32:00,
2013-02-01 11:42:00,49.0,20.0,30.25,East,82,0.0,4.0,32,-99.99,,,0.00,,2013-02-01 18:42:00,
2013-02-01 11:53:00,49.0,20.0,30.25,East,82,0.0,4.0,32,-99.99,,,0.00,,2013-02-01 18:53:00,
2013-02-01 12:02:00,51.0,22.0,30.24,East,82,2.0,2.0,32,-99.99,,,0.00,,2013-02-01 19:02:00,
2013-02-01 12:11:00,50.0,19.0,30.24,East,82,5.0,5.0,29,-99.99,,,0.00,,2013-02-01 19:11:00,
2013-02-01 12:21:00,50.0,19.0,30.24,East,82,5.0,5.0,29,-99.99,,,0.00,,2013-02-01 19:21:00,
2013-02-01 12:32:00,50.0,21.0,30.23,East,82,6.0,8.0,32,-99.99,,,0.00,,2013-02-01 19:32:00,
2013-02-01 12:41:00,50.0,21.0,30.23,East,82,4.0,8.0,32,-99.99,,,0.00,,2013-02-01 19:41:00,
2013-02-01 12:52:00,50.0,21.0,30.23,East,82,4.0,8.0,32,-99.99,,,0.00,,2013-02-01 19:52:00,
2013-02-01 13:02:00,50.0,22.0,30.22,East,80,4.0,8.0,32,-99.99,,,0.00,,2013-02-01 20:02:00,
2013-02-01 13:11:00,50.0,22.0,30.23,ENE,78,3.0,8.0,33,-99.99,,,0.00,,2013-02-01 20:11:00,
2013-02-01 13:21:00,50.0,22.0,30.23,ENE,78,3.0,8.0,33,-99.99,,,0.00,,2013-02-01 20:21:00,
2013-02-01 13:31:00,50.0,20.0,30.23,ENE,78,2.0,7.0,30,-99.99,,,0.00,,2013-02-01 20:31:00,
2013-02-01 13:41:00,51.0,22.0,30.20,ENE,78,4.0,7.0,32,-99.99,,,0.00,,2013-02-01 20:41:00,
2013-02-01 13:52:00,51.0,22.0,30.20,ENE,78,4.0,7.0,32,-99.99,,,0.00,,2013-02-01 20:52:00,
2013-02-01 14:01:00,52.0,23.0,30.20,ENE,78,1.0,9.0,31,-99.99,,,0.00,,2013-02-01 21:01:00,
2013-02-01 14:11:00,53.0,24.0,30.19,ENE,78,3.0,9.0,32,-99.99,,,0.00,,2013-02-01 21:11:00,
2013-02-01 14:21:00,53.0,24.0,30.19,ENE,78,3.0,9.0,32,-99.99,,,0.00,,2013-02-01 21:21:00,
2013-02-01 14:31:00,53.0,26.0,30.18,East,80,4.0,11.0,35,-99.99,,,0.00,,2013-02-01 21:31:00,
2013-02-01 14:41:00,53.0,26.0,30.18,East,80,4.0,11.0,35,-99.99,,,0.00,,2013-02-01 21:41:00,
2013-02-01 14:52:00,52.0,26.0,30.19,East,81,8.0,14.0,36,-99.99,,,0.00,,2013-02-01 21:52:00,
2013-02-01 15:02:00,52.0,26.0,30.19,East,81,8.0,14.0,36,-99.99,,,0.00,,2013-02-01 22:02:00,
2013-02-01 15:11:00,52.0,27.0,30.20,ENE,76,4.0,15.0,37,-99.99,,,0.00,,2013-02-01 22:11:00,
2013-02-01 15:21:00,52.0,27.0,30.20,ENE,76,4.0,15.0,37,-99.99,,,0.00,,2013-02-01 22:21:00,
2013-02-01 15:32:00,52.0,27.0,30.20,East,94,3.0,12.0,37,-99.99,,,0.00,,2013-02-01 22:32:00,
2013-02-01 15:42:00,52.0,27.0,30.21,ENE,71,3.0,13.0,38,-99.99,,,0.00,,2013-02-01 22:42:00,
2013-02-01 15:52:00,52.0,27.0,30.21,ENE,71,3.0,13.0,38,-99.99,,,0.00,,2013-02-01 22:52:00,
2013-02-01 16:01:00,51.0,27.0,30.22,East,81,5.0,12.0,38,-99.99,,,-99.99,,2013-02-01 23:01:00,
2013-02-01 16:11:00,51.0,27.0,30.21,ENE,73,3.0,12.0,39,-99.99,,,0.00,,2013-02-01 23:11:00,
2013-02-01 16:21:00,51.0,27.0,30.21,ENE,73,3.0,12.0,39,-99.99,,,0.00,,2013-02-01 23:21:00,
2013-02-01 16:31:00,51.0,28.0,30.23,ENE,78,4.0,11.0,41,-99.99,,,0.00,,2013-02-01 23:31:00,
2013-02-01 16:41:00,50.0,28.0,30.23,ENE,69,5.0,11.0,42,-99.99,,,0.00,,2013-02-01 23:41:00,
2013-02-01 16:52:00,50.0,28.0,30.23,ENE,69,5.0,11.0,42,-99.99,,,0.00,,2013-02-01 23:52:00,
2013-02-01 17:02:00,50.0,28.0,30.24,ENE,72,4.0,11.0,42,-99.99,,,-99.99,,2013-02-02 00:02:00,
2013-02-01 17:11:00,49.0,28.0,30.24,East,81,5.0,11.0,43,-99.99,,,0.00,,2013-02-02 00:11:00,
2013-02-01 17:21:00,49.0,28.0,30.24,East,81,5.0,11.0,43,-99.99,,,0.00,,2013-02-02 00:21:00,
2013-02-01 17:32:00,49.0,28.0,30.25,ENE,77,4.0,8.0,45,-99.99,,,-99.99,,2013-02-02 00:32:00,
2013-02-01 17:41:00,48.0,28.0,30.26,ENE,76,2.0,8.0,46,-99.99,,,0.00,,2013-02-02 00:41:00,
2013-02-01 17:52:00,48.0,28.0,30.26,ENE,76,2.0,8.0,46,-99.99,,,0.00,,2013-02-02 00:52:00,
2013-02-01 18:02:00,47.0,28.0,30.28,ENE,76,4.0,4.0,48,-99.99,,,0.00,,2013-02-02 01:02:00,
2013-02-01 18:11:00,46.0,28.0,30.28,ENE,76,1.0,4.0,49,-99.99,,,0.00,,2013-02-02 01:11:00,
2013-02-01 18:21:00,46.0,28.0,30.28,ENE,76,1.0,4.0,49,-99.99,,,0.00,,2013-02-02 01:21:00,
2013-02-01 18:31:00,45.0,28.0,30.30,ENE,76,0.0,1.0,51,-99.99,,,0.00,,2013-02-02 01:31:00,
2013-02-01 18:41:00,42.0,27.0,30.32,ENE,76,3.0,5.0,56,-99.99,,,0.00,,2013-02-02 01:41:00,
2013-02-01 18:52:00,42.0,27.0,30.32,ENE,76,3.0,5.0,56,-99.99,,,0.00,,2013-02-02 01:52:00,
2013-02-01 19:01:00,40.0,27.0,30.34,ENE,76,0.0,3.0,59,-99.99,,,0.00,,2013-02-02 02:01:00,
2013-02-01 19:11:00,38.0,27.0,30.36,ENE,76,0.0,4.0,64,-99.99,,,-99.99,,2013-02-02 02:11:00,
2013-02-01 19:21:00,38.0,27.0,30.36,ENE,76,0.0,4.0,64,-99.99,,,-99.99,,2013-02-02 02:21:00,
2013-02-01 19:31:00,36.0,26.0,30.38,ENE,76,3.0,3.0,68,-99.99,,,0.00,,2013-02-02 02:31:00,
2013-02-01 19:41:00,34.0,25.0,30.39,ENE,76,0.0,3.0,70,-99.99,,,0.00,,2013-02-02 02:41:00,
2013-02-01 19:52:00,33.0,25.0,30.39,ENE,76,1.0,4.0,72,-99.99,,,0.00,,2013-02-02 02:52:00,
2013-02-01 20:02:00,33.0,25.0,30.39,ENE,76,1.0,4.0,72,-99.99,,,0.00,,2013-02-02 03:02:00,
2013-02-01 20:11:00,32.0,25.0,30.41,ENE,76,2.0,4.0,74,-99.99,,,0.00,,2013-02-02 03:11:00,
2013-02-01 20:21:00,32.0,25.0,30.41,ENE,76,2.0,4.0,74,-99.99,,,0.00,,2013-02-02 03:21:00,
2013-02-01 20:32:00,34.0,25.0,30.40,ENE,76,1.0,4.0,71,-99.99,,,0.00,,2013-02-02 03:32:00,
2013-02-01 20:42:00,32.0,25.0,30.42,ENE,76,0.0,4.0,74,-99.99,,,0.00,,2013-02-02 03:42:00,
2013-02-01 20:52:00,31.0,24.0,30.37,ENE,76,0.0,4.0,76,-99.99,,,0.00,,2013-02-02 03:52:00,
2013-02-01 21:01:00,31.0,24.0,30.37,ENE,76,0.0,4.0,76,-99.99,,,0.00,,2013-02-02 04:01:00,
2013-02-01 21:11:00,31.0,24.0,30.37,ENE,76,0.0,4.0,75,-99.99,,,0.00,,2013-02-02 04:11:00,
2013-02-01 21:21:00,31.0,24.0,30.37,ENE,76,0.0,4.0,75,-99.99,,,0.00,,2013-02-02 04:21:00,
2013-02-01 21:32:00,31.0,23.0,30.38,ENE,76,3.0,4.0,72,-99.99,,,0.00,,2013-02-02 04:32:00,
2013-02-01 21:41:00,31.0,23.0,30.38,ENE,76,3.0,4.0,72,-99.99,,,0.00,,2013-02-02 04:41:00,
2013-02-01 21:52:00,31.0,23.0,30.38,ENE,76,3.0,4.0,72,-99.99,,,0.00,,2013-02-02 04:52:00,
2013-02-01 22:03:00,31.0,22.0,30.32,ENE,76,3.0,4.0,67,-99.99,,,0.00,,2013-02-02 05:03:00,
2013-02-01 22:11:00,31.0,22.0,30.32,ENE,76,0.0,4.0,67,-99.99,,,0.00,,2013-02-02 05:11:00,
2013-02-01 22:22:00,31.0,22.0,30.32,ENE,76,0.0,4.0,67,-99.99,,,0.00,,2013-02-02 05:22:00,
2013-02-01 22:33:00,29.0,22.0,30.34,ENE,76,0.0,3.0,75,-99.99,,,0.00,,2013-02-02 05:33:00,
2013-02-01 22:41:00,29.0,22.0,30.34,ENE,76,0.0,3.0,75,-99.99,,,0.00,,2013-02-02 05:41:00,
2013-02-01 22:52:00,29.0,22.0,30.34,ENE,76,0.0,3.0,75,-99.99,,,0.00,,2013-02-02 05:52:00,
2013-02-01 23:02:00,29.0,22.0,30.28,ENE,76,0.0,3.0,75,-99.99,,,0.00,,2013-02-02 06:02:00,
2013-02-01 23:12:00,29.0,21.0,30.29,ENE,76,3.0,4.0,73,-99.99,,,-99.99,,2013-02-02 06:12:00,
2013-02-01 23:21:00,29.0,21.0,30.29,ENE,76,3.0,4.0,73,-99.99,,,-99.99,,2013-02-02 06:21:00,
2013-02-01 23:31:00,29.0,21.0,30.29,ENE,76,1.0,4.0,73,-99.99,,,0.00,,2013-02-02 06:31:00,
2013-02-01 23:41:00,27.0,20.0,30.31,ENE,76,0.0,4.0,74,-99.99,,,0.00,,2013-02-02 06:41:00,
2013-02-01 23:52:00,27.0,20.0,30.31,ENE,76,0.0,4.0,74,-99.99,,,0.00,,2013-02-02 06:52:00,